createdAt,value
2018-09-08T00:00:11.451Z,12.19
2018-09-08T00:01:11.467Z,12.26
2018-09-08T00:02:11.477Z,12.37
2018-09-08T00:03:11.497Z,12.37
2018-09-08T00:04:11.512Z,12.37
2018-09-08T00:05:11.538Z,12.42
2018-09-08T00:06:11.547Z,12.46
2018-09-08T00:07:11.564Z,12.48
2018-09-08T00:08:11.580Z,12.41
2018-09-08T00:09:11.597Z,12.46
2018-09-08T00:10:11.614Z,12.39
2018-09-08T00:11:11.638Z,12.45
2018-09-08T00:12:11.648Z,12.39
2018-09-08T00:13:11.663Z,12.38
2018-09-08T00:14:11.681Z,12.38
2018-09-08T00:15:11.696Z,12.44
2018-09-08T00:16:11.710Z,12.42
2018-09-08T00:17:11.730Z,12.46
2018-09-08T00:18:11.744Z,12.46
2018-09-08T00:19:11.759Z,12.46
2018-09-08T00:20:11.784Z,12.45
2018-09-08T00:21:11.793Z,12.45
2018-09-08T00:22:11.813Z,12.39
2018-09-08T00:23:11.830Z,12.41
2018-09-08T00:24:11.879Z,12.27
2018-09-08T00:25:11.858Z,12.34
2018-09-08T00:26:11.877Z,12.33
2018-09-08T00:27:11.892Z,12.37
2018-09-08T00:28:11.911Z,12.37
2018-09-08T00:29:11.927Z,12.31
2018-09-08T00:30:11.942Z,12.33
2018-09-08T00:31:11.960Z,12.21
2018-09-08T00:32:11.975Z,12.24
2018-09-08T00:33:11.994Z,12.23
2018-09-08T00:34:12.014Z,12.23
2018-09-08T00:35:12.025Z,12.21
2018-09-08T00:36:12.046Z,12.26
2018-09-08T00:37:12.057Z,12.39
2018-09-08T00:38:12.078Z,12.29
2018-09-08T00:39:12.091Z,12.26
2018-09-08T00:40:12.106Z,12.33
2018-09-08T00:41:12.127Z,12.23
2018-09-08T00:42:12.142Z,12.26
2018-09-08T00:43:12.155Z,12.23
2018-09-08T00:44:12.175Z,12.26
2018-09-08T00:45:12.190Z,12.34
2018-09-08T00:46:12.207Z,12.33
2018-09-08T00:47:12.221Z,12.31
2018-09-08T00:48:12.240Z,12.33
2018-09-08T00:49:12.257Z,12.37
2018-09-08T00:50:12.278Z,12.30
2018-09-08T00:51:12.289Z,12.33
2018-09-08T00:52:12.304Z,12.31
2018-09-08T00:53:12.323Z,12.38
2018-09-08T00:54:12.339Z,12.33
2018-09-08T00:55:12.355Z,12.31
2018-09-08T00:56:12.376Z,12.38
2018-09-08T00:57:12.390Z,12.37
2018-09-08T00:58:12.404Z,12.33
2018-09-08T00:59:12.420Z,12.34
2018-09-08T01:00:12.433Z,12.31
2018-09-08T01:01:12.455Z,12.24
2018-09-08T01:02:12.470Z,12.23
2018-09-08T01:03:12.485Z,12.30
2018-09-08T01:04:12.509Z,12.30
2018-09-08T01:05:12.522Z,12.33
2018-09-08T01:06:12.533Z,12.23
2018-09-08T01:07:12.547Z,12.26
2018-09-08T01:08:12.568Z,12.26
2018-09-08T01:09:12.583Z,12.29
2018-09-08T01:10:12.600Z,12.20
2018-09-08T01:11:12.615Z,12.23
2018-09-08T01:12:12.635Z,12.24
2018-09-08T01:13:12.647Z,12.33
2018-09-08T01:14:12.665Z,12.26
2018-09-08T01:15:12.681Z,12.33
2018-09-08T01:16:12.703Z,12.31
2018-09-08T01:17:12.714Z,12.38
2018-09-08T01:18:12.728Z,12.38
2018-09-08T01:19:12.748Z,12.34
2018-09-08T01:20:12.767Z,12.34
2018-09-08T01:21:12.779Z,12.39
2018-09-08T01:22:12.795Z,12.38
2018-09-08T01:23:12.815Z,12.37
2018-09-08T01:24:12.828Z,12.31
2018-09-08T01:25:12.845Z,12.38
2018-09-08T01:26:12.897Z,12.33
2018-09-08T01:27:12.879Z,12.44
2018-09-08T01:28:12.896Z,12.39
2018-09-08T01:29:12.912Z,12.41
2018-09-08T01:30:12.928Z,12.41
2018-09-08T01:31:12.944Z,12.37
2018-09-08T01:32:12.960Z,12.33
2018-09-08T01:33:12.974Z,12.29
2018-09-08T01:34:12.997Z,12.29
2018-09-08T01:35:13.010Z,12.30
2018-09-08T01:36:13.024Z,12.33
2018-09-08T01:37:13.041Z,12.29
2018-09-08T01:38:13.058Z,12.27
2018-09-08T01:39:13.078Z,12.39
2018-09-08T01:40:13.089Z,12.33
2018-09-08T01:41:13.110Z,12.37
2018-09-08T01:42:13.122Z,12.31
2018-09-08T01:43:13.144Z,12.31
2018-09-08T01:44:13.159Z,12.31
2018-09-08T01:45:13.175Z,12.34
2018-09-08T01:46:13.187Z,12.39
2018-09-08T01:47:13.220Z,12.42
2018-09-08T01:48:13.222Z,12.34
2018-09-08T01:49:13.240Z,12.33
2018-09-08T01:50:13.253Z,12.38
2018-09-08T01:51:13.272Z,12.33
2018-09-08T01:52:13.287Z,12.29
2018-09-08T01:53:13.304Z,12.34
2018-09-08T01:54:13.320Z,12.30
2018-09-08T01:55:13.338Z,12.24
2018-09-08T01:56:13.356Z,12.19
2018-09-08T01:57:13.374Z,12.23
2018-09-08T01:58:13.386Z,12.21
2018-09-08T01:59:13.403Z,12.13
2018-09-08T02:00:13.419Z,12.23
2018-09-08T02:01:13.492Z,12.16
2018-09-08T02:02:13.453Z,12.20
2018-09-08T02:03:13.467Z,12.12
2018-09-08T02:04:13.485Z,12.16
2018-09-08T02:05:13.506Z,12.11
2018-09-08T02:06:13.515Z,12.16
2018-09-08T02:07:13.542Z,12.16
2018-09-08T02:08:13.551Z,12.12
2018-09-08T02:09:13.567Z,12.19
2018-09-08T02:10:13.583Z,12.21
2018-09-08T02:11:13.599Z,12.37
2018-09-08T02:12:13.616Z,12.30
2018-09-08T02:13:13.635Z,12.37
2018-09-08T02:14:13.653Z,12.39
2018-09-08T02:15:13.665Z,12.39
2018-09-08T02:16:13.680Z,12.39
2018-09-08T02:17:13.697Z,12.38
2018-09-08T02:18:13.713Z,12.41
2018-09-08T02:19:13.733Z,12.39
2018-09-08T02:20:13.749Z,12.42
2018-09-08T02:21:13.763Z,12.44
2018-09-08T02:22:13.781Z,12.42
2018-09-08T02:23:13.797Z,12.39
2018-09-08T02:24:13.811Z,12.37
2018-09-08T02:25:13.858Z,12.31
2018-09-08T02:26:13.853Z,12.31
2018-09-08T02:27:13.860Z,12.38
2018-09-08T02:28:13.882Z,12.37
2018-09-08T02:29:13.896Z,12.37
2018-09-08T02:30:13.917Z,12.38
2018-09-08T02:31:13.947Z,12.39
2018-09-08T02:32:13.944Z,12.37
2018-09-08T02:33:13.965Z,12.42
2018-09-08T02:34:13.977Z,12.38
2018-09-08T02:35:13.992Z,12.37
2018-09-08T02:36:14.008Z,12.33
2018-09-08T02:37:14.032Z,12.30
2018-09-08T02:38:14.039Z,12.39
2018-09-08T02:39:14.060Z,12.26
2018-09-08T02:40:14.075Z,12.33
2018-09-08T02:41:14.093Z,12.30
2018-09-08T02:42:14.111Z,12.29
2018-09-08T02:43:14.122Z,12.33
2018-09-08T02:44:14.141Z,12.34
2018-09-08T02:45:14.160Z,12.38
2018-09-08T02:46:14.172Z,12.37
2018-09-08T02:47:14.193Z,12.41
2018-09-08T02:48:14.213Z,12.34
2018-09-08T02:49:14.222Z,12.34
2018-09-08T02:50:14.239Z,12.33
2018-09-08T02:51:14.254Z,12.37
2018-09-08T02:52:14.271Z,12.34
2018-09-08T02:53:14.289Z,12.34
2018-09-08T02:54:14.306Z,12.34
2018-09-08T02:55:14.320Z,12.33
2018-09-08T02:56:14.338Z,12.33
2018-09-08T02:57:14.357Z,12.24
2018-09-08T02:58:14.369Z,12.24
2018-09-08T02:59:14.386Z,12.23
2018-09-08T03:00:14.403Z,12.24
2018-09-08T03:01:14.416Z,12.30
2018-09-08T03:02:14.435Z,12.24
2018-09-08T03:03:14.451Z,12.24
2018-09-08T03:04:14.466Z,12.23
2018-09-08T03:05:14.484Z,12.26
2018-09-08T03:06:14.499Z,12.26
2018-09-08T03:07:14.519Z,12.16
2018-09-08T03:08:14.534Z,12.08
2018-09-08T03:38:52.285Z,12.21
2018-09-08T03:39:52.261Z,12.23
2018-09-08T03:41:44.167Z,12.21
2018-09-08T03:42:44.171Z,12.23
2018-09-08T03:44:36.094Z,12.24
2018-09-08T03:45:36.084Z,12.24
2018-09-08T03:47:27.991Z,12.27
2018-09-08T03:48:27.994Z,12.23
2018-09-08T03:50:19.922Z,12.23
2018-09-08T03:51:19.912Z,12.27
2018-09-08T03:53:12.040Z,12.08
2018-09-08T03:54:12.027Z,12.13
2018-09-08T03:56:03.933Z,12.13
2018-09-08T03:57:03.940Z,12.11
2018-09-08T03:58:55.918Z,12.01
2018-09-08T03:59:55.868Z,11.97
2018-09-08T04:01:47.775Z,11.90
2018-09-08T04:02:47.785Z,11.94
2018-09-08T04:04:39.728Z,11.93
2018-09-08T04:05:39.714Z,11.85
2018-09-08T04:07:31.622Z,11.89
2018-09-08T04:08:31.631Z,11.93
2018-09-08T04:10:23.571Z,11.96
2018-09-08T04:11:23.640Z,11.94
2018-09-08T04:13:15.493Z,11.97
2018-09-08T04:14:15.485Z,11.93
2018-09-08T04:16:07.397Z,11.78
2018-09-08T04:17:07.406Z,11.83
2018-09-08T04:18:59.332Z,11.82
2018-09-08T04:19:59.322Z,11.77
2018-09-08T04:21:51.234Z,11.86
2018-09-08T04:22:51.242Z,11.77
2018-09-08T04:24:43.175Z,11.75
2018-09-08T04:25:43.164Z,11.80
2018-09-08T04:27:35.080Z,11.78
2018-09-08T04:28:35.087Z,11.78
2018-09-08T04:30:27.013Z,11.83
2018-09-08T04:31:27.003Z,11.83
2018-09-08T04:33:18.934Z,11.85
2018-09-08T04:34:18.931Z,11.90
2018-09-08T04:36:10.845Z,11.97
2018-09-08T04:37:10.847Z,11.94
2018-09-08T04:39:02.787Z,12.01
2018-09-08T04:40:02.777Z,11.89
2018-09-08T04:41:54.688Z,11.94
2018-09-08T04:42:54.699Z,11.78
2018-09-08T04:44:46.632Z,11.80
2018-09-08T04:45:46.624Z,11.82
2018-09-08T04:47:38.528Z,11.78
2018-09-08T04:48:38.542Z,11.83
2018-09-08T04:50:30.475Z,11.74
2018-09-08T04:51:30.459Z,11.77
2018-09-08T04:53:22.368Z,11.72
2018-09-08T04:54:22.382Z,11.85
2018-09-08T04:56:14.313Z,11.77
2018-09-08T04:57:14.309Z,11.74
2018-09-08T04:59:06.237Z,11.77
2018-09-08T05:00:06.227Z,11.78
2018-09-08T05:01:58.141Z,11.74
2018-09-08T05:02:58.157Z,11.85
2018-09-08T05:04:50.079Z,11.80
2018-09-08T05:05:50.072Z,11.75
2018-09-08T05:07:41.996Z,11.80
2018-09-08T05:08:42.004Z,11.80
2018-09-08T05:10:33.938Z,11.77
2018-09-08T05:11:33.933Z,11.75
2018-09-08T05:13:25.846Z,11.75
2018-09-08T05:14:25.867Z,11.82
2018-09-08T05:16:17.783Z,11.80
2018-09-08T05:17:17.803Z,11.83
2018-09-08T05:19:09.713Z,11.90
2018-09-08T05:20:09.702Z,11.97
2018-09-08T05:22:01.627Z,11.90
2018-09-08T05:23:01.625Z,11.93
2018-09-08T05:24:53.559Z,11.90
2018-09-08T05:25:53.549Z,11.96
2018-09-08T05:27:45.464Z,11.93
2018-09-08T05:28:45.473Z,11.96
2018-09-08T05:30:37.408Z,12.04
2018-09-08T05:31:37.401Z,12.01
2018-09-08T05:33:29.315Z,12.13
2018-09-08T05:34:29.324Z,12.13
2018-09-08T05:36:21.257Z,12.16
2018-09-08T05:37:21.247Z,12.20
2018-09-08T05:39:13.183Z,12.24
2018-09-08T05:40:13.172Z,12.31
2018-09-08T05:42:05.101Z,12.30
2018-09-08T05:43:05.143Z,12.24
2018-09-08T05:44:57.040Z,12.27
2018-09-08T05:45:57.032Z,12.30
2018-09-08T05:47:48.944Z,12.34
2018-09-08T05:48:48.974Z,12.41
2018-09-08T05:50:40.881Z,12.48
2018-09-08T05:51:40.871Z,12.49
2018-09-08T05:53:32.791Z,12.49
2018-09-08T05:54:32.806Z,12.54
2018-09-08T05:56:24.741Z,12.56
2018-09-08T05:57:24.718Z,12.59
2018-09-08T05:59:16.652Z,12.59
2018-09-08T06:00:16.645Z,12.67
2018-09-08T06:02:08.561Z,12.71
2018-09-08T06:03:08.568Z,12.66
2018-09-08T06:05:00.500Z,12.69
2018-09-08T06:06:00.505Z,12.71
2018-09-08T06:07:52.413Z,12.78
2018-09-08T06:08:52.417Z,12.81
2018-09-08T06:10:44.354Z,12.84
2018-09-08T06:11:44.343Z,12.87
2018-09-08T06:13:36.254Z,13.04
2018-09-08T06:14:36.265Z,13.12
2018-09-08T06:16:28.198Z,13.32
2018-09-08T06:17:28.214Z,13.38
2018-09-08T06:19:20.136Z,13.41
2018-09-08T06:20:20.125Z,13.37
2018-09-08T06:22:12.039Z,13.41
2018-09-08T06:23:12.048Z,13.80
2018-09-08T06:25:03.978Z,14.35
2018-09-08T06:26:03.968Z,14.53
2018-09-08T06:27:55.887Z,14.99
2018-09-08T06:28:55.896Z,14.80
2018-09-08T06:30:47.826Z,14.62
2018-09-08T06:31:47.864Z,14.68
2018-09-08T06:33:39.753Z,14.81
2018-09-08T06:34:39.745Z,14.74
2018-09-08T06:36:31.686Z,14.46
2018-09-08T06:37:31.677Z,14.50
2018-09-08T06:39:23.632Z,14.47
2018-09-08T06:40:23.610Z,14.67
2018-09-08T06:42:15.530Z,14.61
2018-09-08T06:43:15.536Z,14.64
2018-09-08T06:45:07.569Z,14.88
2018-09-08T06:46:07.466Z,15.19
2018-09-08T06:47:59.388Z,15.51
2018-09-08T06:48:59.394Z,15.75
2018-09-08T06:50:51.329Z,16.18
2018-09-08T06:51:51.323Z,16.40
2018-09-08T06:53:43.274Z,16.63
2018-09-08T06:54:43.265Z,16.62
2018-09-08T06:56:35.198Z,16.86
2018-09-08T06:57:35.194Z,17.28
2018-09-08T06:59:27.107Z,17.47
2018-09-08T07:00:27.137Z,17.41
2018-09-08T07:02:19.060Z,17.43
2018-09-08T07:03:19.079Z,17.53
2018-09-08T07:05:10.991Z,17.70
2018-09-08T07:06:10.984Z,17.89
2018-09-08T07:08:02.921Z,17.81
2018-09-08T07:09:02.916Z,17.89
2018-09-08T07:10:54.852Z,18.07
2018-09-08T07:11:54.846Z,18.04
2018-09-08T07:13:46.771Z,18.02
2018-09-08T07:14:46.786Z,18.09
2018-09-08T07:16:38.783Z,18.12
2018-09-08T07:17:38.763Z,18.02
2018-09-08T07:19:30.644Z,18.02
2018-09-08T07:20:30.654Z,18.02
2018-09-08T07:22:23.102Z,18.07
2018-09-08T07:23:23.097Z,18.06
2018-09-08T07:25:15.037Z,17.81
2018-09-08T07:26:15.029Z,17.74
2018-09-08T07:28:06.954Z,17.78
2018-09-08T07:29:06.973Z,17.79
2018-09-08T07:30:58.941Z,17.81
2018-09-08T07:31:58.905Z,17.91
2018-09-08T07:33:50.830Z,17.71
2018-09-08T07:34:50.839Z,17.84
2018-09-08T07:36:42.784Z,17.55
2018-09-08T07:37:42.779Z,17.55
2018-09-08T07:39:34.702Z,17.40
2018-09-08T07:40:34.718Z,17.38
2018-09-08T07:42:26.656Z,17.44
2018-09-08T07:43:26.648Z,17.36
2018-09-08T07:45:18.590Z,17.30
2018-09-08T07:46:18.585Z,17.33
2018-09-08T07:48:10.504Z,17.20
2018-09-08T07:49:10.519Z,17.18
2018-09-08T07:51:02.461Z,17.15
2018-09-08T07:52:02.460Z,17.26
2018-09-08T07:53:54.400Z,17.46
2018-09-08T07:54:54.391Z,17.55
2018-09-08T07:56:46.335Z,17.62
2018-09-08T07:57:46.340Z,17.79
2018-09-08T07:59:38.248Z,17.82
2018-09-08T08:00:38.264Z,17.85
2018-09-08T08:02:30.213Z,18.03
2018-09-08T08:03:30.198Z,18.07
2018-09-08T08:05:22.145Z,18.13
2018-09-08T08:06:22.135Z,18.17
2018-09-08T08:08:14.053Z,18.18
2018-09-08T08:09:14.066Z,18.25
2018-09-08T08:11:06.000Z,18.29
2018-09-08T08:12:06.000Z,18.24
2018-09-08T08:13:57.951Z,18.42
2018-09-08T08:14:57.927Z,18.47
2018-09-08T08:16:49.871Z,18.34
2018-09-08T08:17:49.865Z,18.42
2018-09-08T08:19:41.789Z,18.46
2018-09-08T08:20:41.804Z,18.46
2018-09-08T08:22:33.752Z,18.58
2018-09-08T08:23:33.751Z,18.40
2018-09-08T08:25:25.704Z,18.59
2018-09-08T08:26:25.683Z,18.64
2018-09-08T08:28:17.614Z,18.72
2018-09-08T08:29:17.627Z,18.73
2018-09-08T08:31:09.585Z,18.90
2018-09-08T08:32:09.558Z,18.99
2018-09-08T08:34:01.479Z,18.97
2018-09-08T08:35:01.495Z,18.92
2018-09-08T08:36:53.472Z,18.91
2018-09-08T08:37:53.421Z,19.01
2018-09-08T08:39:45.345Z,19.02
2018-09-08T08:40:45.356Z,19.02
2018-09-08T08:42:37.291Z,19.13
2018-09-08T08:43:37.290Z,19.25
2018-09-08T08:45:29.228Z,19.33
2018-09-08T08:46:29.247Z,19.40
2018-09-08T08:48:21.188Z,19.51
2018-09-08T08:49:21.185Z,19.48
2018-09-08T08:51:13.128Z,19.42
2018-09-08T08:52:13.124Z,19.54
2018-09-08T08:54:05.042Z,19.55
2018-09-08T08:55:05.064Z,19.55
2018-09-08T08:56:56.993Z,19.54
2018-09-08T08:57:56.987Z,19.54
2018-09-08T08:59:48.907Z,19.54
2018-09-08T09:00:48.925Z,19.53
2018-09-08T09:02:40.868Z,19.53
2018-09-08T09:03:40.864Z,19.48
2018-09-08T09:05:32.788Z,19.66
2018-09-08T09:06:32.804Z,19.54
2018-09-08T09:08:25.162Z,19.51
2018-09-08T09:09:24.759Z,19.60
2018-09-08T09:11:16.677Z,19.60
2018-09-08T09:12:16.674Z,19.69
2018-09-08T09:14:08.589Z,19.70
2018-09-08T09:15:08.939Z,19.66
2018-09-08T09:17:00.549Z,19.68
2018-09-08T09:18:00.543Z,19.80
2018-09-08T09:19:52.463Z,19.88
2018-09-08T09:20:52.477Z,19.94
2018-09-08T09:22:44.421Z,20.09
2018-09-08T09:23:44.414Z,20.18
2018-09-08T09:25:36.331Z,20.34
2018-09-08T09:26:36.346Z,20.25
2018-09-08T09:28:28.294Z,20.25
2018-09-08T09:29:28.282Z,20.27
2018-09-08T09:31:20.232Z,20.20
2018-09-08T09:32:20.221Z,20.23
2018-09-08T09:34:12.142Z,20.00
2018-09-08T09:35:12.155Z,19.90
2018-09-08T09:37:04.101Z,20.02
2018-09-08T09:38:04.096Z,20.00
2018-09-08T09:39:56.014Z,20.12
2018-09-08T09:40:56.033Z,20.10
2018-09-08T09:42:48.021Z,20.05
2018-09-08T09:43:47.971Z,20.03
2018-09-08T09:45:39.913Z,20.23
2018-09-08T09:46:39.915Z,20.25
2018-09-08T09:48:31.865Z,20.34
2018-09-08T09:49:31.858Z,20.42
2018-09-08T09:51:23.799Z,20.76
2018-09-08T09:52:23.794Z,20.81
2018-09-08T09:54:15.712Z,21.27
2018-09-08T09:55:15.728Z,21.20
2018-09-08T09:57:07.673Z,21.16
2018-09-08T09:58:07.674Z,20.95
2018-09-08T09:59:59.591Z,21.04
2018-09-08T10:00:59.616Z,20.95
2018-09-08T10:02:51.548Z,20.95
2018-09-08T10:03:51.539Z,20.81
2018-09-08T10:05:43.460Z,20.84
2018-09-08T10:06:43.477Z,20.64
2018-09-08T10:08:35.420Z,20.50
2018-09-08T10:09:35.417Z,20.27
2018-09-08T10:11:27.373Z,20.20
2018-09-08T10:12:27.355Z,19.98
2018-09-08T10:14:19.275Z,19.83
2018-09-08T10:15:19.292Z,19.75
2018-09-08T10:17:11.239Z,19.58
2018-09-08T10:18:11.236Z,19.66
2018-09-08T10:20:03.157Z,19.70
2018-09-08T10:21:03.170Z,19.73
2018-09-08T10:22:55.180Z,19.63
2018-09-08T10:24:05.159Z,19.68
2018-09-08T10:25:47.039Z,19.90
2018-09-08T10:26:47.051Z,19.88
2018-09-08T10:28:38.995Z,20.49
2018-09-08T10:29:38.986Z,20.74
2018-09-08T10:31:30.906Z,21.26
2018-09-08T10:32:30.924Z,21.59
2018-09-08T10:34:22.873Z,21.82
2018-09-08T10:35:22.869Z,21.78
2018-09-08T10:37:14.805Z,21.53
2018-09-08T10:38:14.807Z,21.30
2018-09-08T10:40:06.772Z,21.34
2018-09-08T10:41:06.739Z,21.06
2018-09-08T10:42:58.687Z,20.77
2018-09-08T10:43:58.687Z,20.62
2018-09-08T10:45:50.607Z,20.34
2018-09-08T10:46:50.630Z,20.31
2018-09-08T10:48:42.767Z,20.31
2018-09-08T10:49:42.768Z,20.18
2018-09-08T10:51:34.693Z,20.15
2018-09-08T10:52:34.705Z,20.10
2018-09-08T10:54:26.651Z,19.98
2018-09-08T10:55:26.647Z,20.08
2018-09-08T10:57:18.597Z,20.16
2018-09-08T10:58:18.588Z,20.46
2018-09-08T11:00:10.511Z,20.80
2018-09-08T11:01:10.524Z,20.99
2018-09-08T11:03:02.467Z,21.14
2018-09-08T11:04:02.465Z,21.20
2018-09-08T11:05:54.387Z,21.56
2018-09-08T11:06:54.397Z,21.69
2018-09-08T11:08:46.347Z,21.75
2018-09-08T11:09:46.337Z,21.78
2018-09-08T11:11:38.270Z,22.04
2018-09-08T11:12:38.289Z,22.07
2018-09-08T11:14:30.233Z,22.23
2018-09-08T11:15:30.228Z,22.07
2018-09-08T11:17:22.169Z,22.04
2018-09-08T11:18:22.169Z,21.91
2018-09-08T11:20:14.090Z,21.75
2018-09-08T11:21:14.109Z,21.69
2018-09-08T11:23:06.052Z,21.71
2018-09-08T11:24:06.051Z,21.60
2018-09-08T11:25:57.973Z,21.71
2018-09-08T11:26:57.995Z,21.82
2018-09-08T11:28:49.942Z,22.13
2018-09-08T11:29:49.941Z,22.25
2018-09-08T11:31:41.896Z,22.37
2018-09-08T11:32:41.892Z,22.20
2018-09-08T11:34:33.832Z,22.13
2018-09-08T11:35:33.830Z,22.10
2018-09-08T11:37:25.781Z,22.50
2018-09-08T11:38:25.837Z,22.62
2018-09-08T11:40:17.695Z,22.86
2018-09-08T11:41:17.717Z,22.87
2018-09-08T11:43:09.671Z,22.90
2018-09-08T11:44:09.664Z,23.04
2018-09-08T11:46:01.598Z,23.26
2018-09-08T11:47:01.621Z,23.27
2018-09-08T11:48:53.581Z,23.14
2018-09-08T11:49:53.556Z,23.04
2018-09-08T11:51:45.479Z,22.67
2018-09-08T11:52:45.510Z,22.64
2018-09-08T11:54:37.449Z,22.86
2018-09-08T11:55:37.481Z,23.01
2018-09-08T11:57:29.395Z,23.22
2018-09-08T11:58:29.388Z,23.11
2018-09-08T12:00:21.322Z,23.23
2018-09-08T12:01:21.340Z,23.12
2018-09-08T12:03:13.294Z,22.89
2018-09-08T12:04:13.284Z,22.62
2018-09-08T12:06:05.228Z,22.67
2018-09-08T12:07:05.241Z,22.74
2018-09-08T12:08:57.182Z,22.74
2018-09-08T12:09:57.178Z,22.82
2018-09-08T12:11:49.115Z,22.74
2018-09-08T12:12:49.134Z,22.69
2018-09-08T12:14:41.073Z,22.47
2018-09-08T12:15:41.070Z,22.32
2018-09-08T12:16:41.094Z,22.12
2018-09-08T12:17:41.114Z,22.09
2018-09-08T12:18:41.137Z,21.92
2018-09-08T12:19:41.163Z,21.82
2018-09-08T12:20:41.185Z,21.83
2018-09-08T12:21:41.214Z,22.13
2018-09-08T12:22:41.227Z,22.09
2018-09-08T12:23:41.257Z,22.09
2018-09-08T12:24:41.278Z,22.22
2018-09-08T12:25:41.301Z,22.47
2018-09-08T12:26:41.320Z,22.64
2018-09-08T12:27:41.354Z,22.77
2018-09-08T12:28:41.370Z,22.71
2018-09-08T12:29:41.386Z,22.75
2018-09-08T12:30:41.511Z,22.96
2018-09-08T12:31:41.480Z,23.11
2018-09-08T12:32:41.457Z,23.19
2018-09-08T12:33:41.479Z,23.39
2018-09-08T12:34:41.504Z,23.24
2018-09-08T12:35:41.526Z,23.20
2018-09-08T12:36:41.553Z,23.02
2018-09-08T12:37:41.574Z,22.60
2018-09-08T12:38:41.621Z,22.47
2018-09-08T12:39:41.617Z,22.54
2018-09-08T12:40:41.636Z,22.41
2018-09-08T12:41:41.663Z,22.28
2018-09-08T12:42:41.684Z,22.28
2018-09-08T12:43:41.706Z,22.32
2018-09-08T12:44:41.729Z,22.27
2018-09-08T12:45:41.799Z,22.34
2018-09-08T12:46:41.779Z,22.23
2018-09-08T12:47:41.794Z,22.16
2018-09-08T12:48:41.819Z,22.17
2018-09-08T12:49:41.850Z,22.13
2018-09-08T12:50:41.868Z,22.14
2018-09-08T12:51:41.886Z,22.06
2018-09-08T12:52:41.912Z,22.17
2018-09-08T12:53:41.936Z,22.16
2018-09-08T12:54:41.957Z,22.02
2018-09-08T12:55:41.974Z,22.13
2018-09-08T12:56:41.999Z,22.16
2018-09-08T12:57:42.023Z,22.22
2018-09-08T12:58:42.045Z,22.29
2018-09-08T12:59:42.067Z,22.39
2018-09-08T13:00:42.085Z,22.60
2018-09-08T13:01:42.111Z,22.47
2018-09-08T13:02:42.138Z,22.41
2018-09-08T13:03:42.156Z,22.34
2018-09-08T13:04:42.177Z,22.14
2018-09-08T13:05:42.202Z,22.13
2018-09-08T13:06:42.232Z,22.13
2018-09-08T13:07:42.291Z,22.22
2018-09-08T13:08:42.274Z,22.32
2018-09-08T13:09:42.291Z,22.67
2018-09-08T13:10:42.329Z,22.59
2018-09-08T13:11:42.336Z,22.60
2018-09-08T13:12:42.359Z,22.78
2018-09-08T13:13:42.380Z,22.89
2018-09-08T13:14:42.409Z,22.74
2018-09-08T13:15:42.425Z,22.87
2018-09-08T13:16:42.447Z,22.75
2018-09-08T13:17:42.473Z,22.83
2018-09-08T13:18:42.509Z,22.83
2018-09-08T13:19:42.522Z,22.93
2018-09-08T13:20:42.567Z,23.04
2018-09-08T13:21:42.578Z,23.05
2018-09-08T13:22:42.588Z,23.20
2018-09-08T13:23:42.609Z,23.49
2018-09-08T13:24:42.634Z,23.53
2018-09-08T13:25:42.653Z,23.82
2018-09-08T13:26:42.674Z,23.86
2018-09-08T13:27:42.700Z,23.79
2018-09-08T13:28:42.718Z,23.62
2018-09-08T13:29:42.745Z,23.45
2018-09-08T13:30:42.775Z,23.26
2018-09-08T13:31:42.787Z,23.15
2018-09-08T13:32:42.812Z,22.89
2018-09-08T13:33:42.840Z,22.75
2018-09-08T13:34:42.860Z,22.64
2018-09-08T13:35:42.885Z,22.53
2018-09-08T13:36:42.901Z,22.49
2018-09-08T13:37:42.929Z,22.47
2018-09-08T13:38:42.951Z,22.17
2018-09-08T13:39:43.045Z,22.10
2018-09-08T13:40:42.995Z,22.06
2018-09-08T13:41:43.020Z,21.91
2018-09-08T13:42:43.041Z,21.85
2018-09-08T13:43:43.068Z,21.79
2018-09-08T13:44:43.088Z,21.69
2018-09-08T13:45:43.109Z,21.74
2018-09-08T13:46:43.136Z,21.81
2018-09-08T13:47:43.157Z,21.82
2018-09-08T13:48:43.181Z,21.88
2018-09-08T13:49:43.196Z,21.92
2018-09-08T13:50:43.222Z,22.09
2018-09-08T13:51:43.246Z,22.14
2018-09-08T13:52:43.321Z,22.19
2018-09-08T13:53:43.288Z,22.22
2018-09-08T13:54:43.316Z,22.25
2018-09-08T13:55:43.332Z,22.38
2018-09-08T13:56:43.358Z,22.44
2018-09-08T13:57:43.381Z,22.47
2018-09-08T13:58:43.402Z,22.47
2018-09-08T13:59:43.428Z,22.52
2018-09-08T14:00:43.449Z,22.43
2018-09-08T14:01:43.472Z,22.53
2018-09-08T14:02:43.491Z,22.53
2018-09-08T14:03:43.513Z,22.54
2018-09-08T14:04:43.535Z,22.56
2018-09-08T14:05:43.560Z,22.53
2018-09-08T14:06:43.581Z,22.52
2018-09-08T14:07:43.602Z,22.50
2018-09-08T14:08:43.625Z,22.46
2018-09-08T14:09:43.649Z,22.50
2018-09-08T14:10:43.672Z,22.47
2018-09-08T14:11:43.693Z,22.39
2018-09-08T14:12:43.716Z,22.41
2018-09-08T14:13:43.736Z,22.41
2018-09-08T14:14:43.760Z,22.49
2018-09-08T14:15:43.784Z,22.41
2018-09-08T14:16:43.803Z,22.46
2018-09-08T14:17:43.829Z,22.37
2018-09-08T14:18:43.848Z,22.39
2018-09-08T14:19:43.872Z,22.37
2018-09-08T14:20:43.895Z,22.39
2018-09-08T14:21:43.915Z,22.27
2018-09-08T14:22:43.939Z,22.13
2018-09-08T14:23:43.970Z,22.25
2018-09-08T14:24:43.985Z,22.28
2018-09-08T14:25:44.007Z,22.29
2018-09-08T14:26:44.031Z,22.28
2018-09-08T14:27:44.049Z,22.37
2018-09-08T14:28:44.133Z,22.35
2018-09-08T14:29:44.099Z,22.35
2018-09-08T14:30:44.121Z,22.23
2018-09-08T14:31:44.144Z,22.29
2018-09-08T14:32:44.215Z,22.39
2018-09-08T14:33:44.187Z,22.39
2018-09-08T14:34:44.209Z,22.34
2018-09-08T14:35:44.231Z,22.37
2018-09-08T14:36:44.353Z,22.28
2018-09-08T14:37:44.277Z,22.29
2018-09-08T14:38:44.302Z,22.27
2018-09-08T14:39:44.319Z,22.49
2018-09-08T14:40:44.343Z,22.49
2018-09-08T14:41:44.368Z,22.46
2018-09-08T14:42:44.390Z,22.54
2018-09-08T14:43:44.410Z,22.52
2018-09-08T14:44:44.434Z,22.54
2018-09-08T14:45:44.455Z,22.53
2018-09-08T14:46:44.479Z,22.59
2018-09-08T14:47:44.519Z,22.56
2018-09-08T14:48:44.523Z,22.49
2018-09-08T14:49:44.545Z,22.50
2018-09-08T14:50:44.569Z,22.50
2018-09-08T14:51:44.588Z,22.47
2018-09-08T14:52:44.609Z,22.49
2018-09-08T14:53:44.634Z,22.54
2018-09-08T14:54:44.668Z,22.47
2018-09-08T14:55:44.678Z,22.32
2018-09-08T14:56:44.787Z,22.13
2018-09-08T14:57:44.726Z,22.06
2018-09-08T14:58:44.748Z,22.02
2018-09-08T14:59:44.773Z,21.97
2018-09-08T15:00:44.793Z,21.88
2018-09-08T15:01:44.818Z,21.79
2018-09-08T15:02:44.836Z,21.88
2018-09-08T15:03:44.859Z,21.83
2018-09-08T15:04:44.920Z,21.78
2018-09-08T15:05:44.906Z,21.81
2018-09-08T15:06:44.925Z,21.79
2018-09-08T15:07:44.951Z,21.81
2018-09-08T15:08:44.975Z,21.90
2018-09-08T15:09:45.010Z,21.78
2018-09-08T15:10:45.020Z,21.81
2018-09-08T15:11:45.036Z,21.82
2018-09-08T15:12:45.060Z,21.94
2018-09-08T15:13:45.084Z,21.92
2018-09-08T15:14:45.102Z,21.85
2018-09-08T15:15:45.127Z,21.97
2018-09-08T15:16:45.147Z,21.94
2018-09-08T15:17:45.167Z,21.76
2018-09-08T15:18:45.191Z,21.72
2018-09-08T15:19:45.211Z,21.71
2018-09-08T15:20:45.235Z,21.69
2018-09-08T15:21:45.258Z,21.67
2018-09-08T15:22:45.281Z,21.66
2018-09-08T15:23:45.315Z,21.66
2018-09-08T15:24:45.326Z,21.72
2018-09-08T15:25:45.357Z,21.71
2018-09-08T15:26:45.375Z,21.63
2018-09-08T15:27:45.394Z,21.66
2018-09-08T15:28:45.413Z,21.66
2018-09-08T15:29:45.433Z,21.66
2018-09-08T15:30:45.454Z,21.75
2018-09-08T15:31:45.475Z,21.76
2018-09-08T15:32:45.567Z,21.76
2018-09-08T15:33:45.521Z,21.76
2018-09-08T15:34:45.550Z,21.83
2018-09-08T15:35:45.566Z,21.78
2018-09-08T15:36:45.587Z,21.88
2018-09-08T15:37:45.612Z,21.85
2018-09-08T15:38:45.633Z,21.90
2018-09-08T15:39:45.655Z,21.92
2018-09-08T15:40:45.674Z,21.94
2018-09-08T15:41:45.699Z,21.82
2018-09-08T15:42:45.725Z,21.78
2018-09-08T15:43:45.743Z,21.78
2018-09-08T15:44:45.761Z,21.72
2018-09-08T15:45:45.845Z,21.69
2018-09-08T15:46:45.806Z,21.56
2018-09-08T15:47:45.827Z,21.57
2018-09-08T15:48:45.850Z,21.61
2018-09-08T15:49:45.879Z,21.51
2018-09-08T15:50:45.895Z,21.57
2018-09-08T15:51:45.924Z,21.53
2018-09-08T15:52:45.942Z,21.50
2018-09-08T15:53:45.961Z,21.45
2018-09-08T15:54:45.982Z,21.44
2018-09-08T15:55:46.005Z,21.38
2018-09-08T15:56:46.024Z,21.35
2018-09-08T15:57:46.049Z,21.30